Hartford, Connecticut
Current Conditions -  °F | °C
As of 3:53 PM on Tuesday 21 Oct 2014 (Local Time) from KHFD Reporting Station
Few Clouds Few Clouds  
Wind Chill: 65°   Ceiling: Unl
Heat Index: 65°   Visibility: 10mi
Dew Point: 49°   Wind: 7mph
Humidity: 56%   Direction: 110°ESE
Pressure: 29.86"   Gusts: NA
Location:  41.76°N, 72.67°W
Report Text: KHFD 211953Z 11006KT 10SM FEW050 18/09 A2986 RMK AO2 SLP111 T01830094
Loading
Personal Weather Stations






























Interactive Weather Map
Tropical Storm Tracking
New forecast layout! Learn more

10-Day Weather Forecast

Advertisements
Track Severe Weather on mobile